M I D A S
Marine Information and Data Acquisition System
Tripno 2290 of the Zeeleeuw from 2012-04-16 07:19:15 to 2012-04-16 17:02:20
Back to CruiseResearch ActivitiesStationsMapUnderway DataData graphs

EquipmentUnitsComment
TimeDGPSUTC
LatitudeDGPSDM.mWGS84
LongitudeDGPSDM.mWGS84
TemperatureSBE03/SBE38deg celciusITS90
ConductivitySBE21S/mITS90
SalinitySBE21 Practical Salinity Units
ChlorophylAChelsea fluorimeterg/lCalibrated in Aceton
Missing or incorrect values are displayed as -999
Sea surface data collected by the RV Zeeleeuw from 2012-04-16 05:55:52 to 2012-04-16 17:18:31
Time Latitude Longitude Temperature Conductivity Salinity ChlorophylA
2012-04-16 05:56:58 51°13.637 2°56.017 15.3817 4.605463 31.448581 -2.458615
2012-04-16 05:57:57 51°13.637 2°56.018 15.3919 4.604944 31.446763 -2.458615
2012-04-16 05:58:58 51°13.638 2°56.018 15.3871 4.604944 31.448907 -2.458615
2012-04-16 05:59:58 51°13.637 2°56.019 15.3829 4.604529 31.447882 -2.458615
2012-04-16 06:00:58 51°13.637 2°56.019 15.3736 4.604322 31.448978 -2.458615
2012-04-16 06:01:57 51°13.637 2°56.021 15.3769 4.603907 31.447952 -2.458615
2012-04-16 06:02:57 51°13.636 2°56.019 15.3923 4.603699 31.448512 -2.458615
2012-04-16 06:03:57 51°13.636 2°56.02 15.3786 4.603388 31.448815 -2.458615
2012-04-16 06:04:58 51°13.636 2°56.02 15.3738 4.603077 31.448582 -2.458615
2012-04-16 06:05:58 51°13.637 2°56.019 15.3806 4.602766 31.448886 -2.458615
2012-04-16 06:06:57 51°13.637 2°56.02 15.3881 4.602662 31.451312 -2.458615
2012-04-16 06:07:57 51°13.637 2°56.02 15.3848 4.602143 31.451103 -2.458615
2012-04-16 06:08:57 51°13.636 2°56.019 15.3813 4.601832 31.452481 -2.458615
2012-04-16 06:09:57 51°13.636 2°56.018 15.3819 4.601521 31.454396 -2.458615
2012-04-16 06:10:57 51°13.635 2°56.019 15.3856 4.601002 31.454725 -2.458615
2012-04-16 06:11:57 51°13.636 2°56.019 15.3846 4.600484 31.455054 -2.458615
2012-04-16 06:12:57 51°13.636 2°56.017 15.3779 4.599965 31.454846 -2.458615
2012-04-16 06:13:57 51°13.636 2°56.019 15.3784 4.59955 31.455433 -2.458615
2012-04-16 06:14:57 51°13.636 2°56.019 12.2332 4.458786 31.168533 -2.458615
2012-04-16 06:15:57 51°13.634 2°56.018 11.6704 3.191611 26.864431 -2.458615
2012-04-16 06:16:57 51°13.633 2°56.018 11.3871 3.070063 26.158771 -2.458615
2012-04-16 06:17:57 51°13.635 2°56.019 11.2801 3.046793 26.118355 -2.458615
2012-04-16 06:18:57 51°13.636 2°56.019 11.2026 3.049483 26.228205 -2.458615
2012-04-16 06:19:57 51°13.635 2°56.02 10.8538 3.052277 26.336059 -2.458615
2012-04-16 06:20:57 51°13.635 2°56.019 10.2265 3.086313 27.03953 -2.458615
2012-04-16 06:21:57 51°13.635 2°56.02 9.9475 3.098524 27.493779 -2.458615
2012-04-16 06:22:57 51°13.635 2°56.02 9.8963 3.104733 27.744821 -2.458615
2012-04-16 06:23:57 51°13.635 2°56.019 9.8441 3.098837 27.725449 -2.458615
2012-04-16 06:24:57 51°13.635 2°56.02 9.822 3.085907 27.618063 -2.458615
2012-04-16 06:25:58 51°13.634 2°56.019 9.8192 3.063668 27.44834 -2.458615
2012-04-16 06:26:57 51°13.635 2°56.019 9.8462 3.037499 27.174809 -2.458615
2012-04-16 06:27:58 51°13.635 2°56.019 9.7961 3.023123 27.0502 -2.458615
2012-04-16 06:28:57 51°13.636 2°56.019 9.8482 3.010815 26.938642 -2.458615
2012-04-16 06:29:57 51°13.636 2°56.02 9.8117 3.01309 26.930527 -2.458615
2012-04-16 06:30:57 51°13.637 2°56.02 9.7864 3.01247 26.953654 -2.458615
2012-04-16 06:31:57 51°13.637 2°56.019 9.7776 3.012056 26.966214 -2.458615
2012-04-16 06:32:57 51°13.636 2°56.019 9.7639 3.011746 26.969812 -2.458615
2012-04-16 06:33:57 51°13.636 2°56.019 9.7208 3.013298 26.999159 -2.458615
2012-04-16 06:34:58 51°13.637 2°56.019 9.7169 3.016711 27.071749 -2.458615
2012-04-16 06:35:57 51°13.636 2°56.019 9.6799 3.017332 27.081921 -2.458615
2012-04-16 06:36:58 51°13.636 2°56.019 9.6642 3.020021 27.132765 -2.458615
2012-04-16 06:37:57 51°13.636 2°56.019 9.6533 3.019504 27.135038 -2.458615
2012-04-16 06:38:57 51°13.635 2°56.019 9.6159 3.023331 27.191892 -2.458615
2012-04-16 06:39:57 51°13.636 2°56.019 9.6498 2.99913 26.95843 -2.458615
2012-04-16 06:40:57 51°13.636 2°56.019 9.6247 2.996234 26.922352 -2.458615
2012-04-16 06:41:57 51°13.636 2°56.019 9.6456 2.996958 26.935549 -2.458615
2012-04-16 06:42:57 51°13.636 2°56.019 9.6389 2.997165 26.926903 -2.458615
2012-04-16 06:43:57 51°13.636 2°56.019 9.6353 2.998819 26.949999 -2.458615
2012-04-16 06:44:57 51°13.636 2°56.019 9.6227 3.001198 26.982971 -2.458615
2012-04-16 06:45:58 51°13.636 2°56.02 9.6011 3.005129 27.029355 -2.458615
2012-04-16 06:46:57 51°13.636 2°56.019 9.5968 3.012369 27.114036 -2.458615
2012-04-16 06:47:57 51°13.637 2°56.018 9.5802 3.017747 27.176933 -2.458615
2012-04-16 06:48:57 51°13.636 2°56.018 9.5653 3.026849 27.275572 -2.458615
2012-04-16 06:49:57 51°13.636 2°56.018 9.5642 3.038226 27.399692 -2.458615
2012-04-16 06:50:57 51°13.636 2°56.018 9.5611 3.041639 27.433682 -2.458615
2012-04-16 06:51:57 51°13.636 2°56.019 9.5518 3.042674 27.450132 -2.458615
2012-04-16 06:52:58 51°13.635 2°56.019 9.545 3.042053 27.447367 -2.458615
2012-04-16 06:53:57 51°13.635 2°56.019 9.5485 3.038123 27.413673 -2.458615
2012-04-16 06:54:58 51°13.636 2°56.019 9.5529 3.034089 27.369399 -2.458615
2012-04-16 06:55:57 51°13.636 2°56.019 9.5455 3.035434 27.381427 -2.458615
2012-04-16 06:56:57 51°13.636 2°56.018 9.544 3.036468 27.397186 -2.458615
2012-04-16 06:57:57 51°13.636 2°56.018 9.5383 3.033986 27.377231 -2.458615
2012-04-16 06:58:57 51°13.636 2°56.018 9.543 3.031607 27.353532 -2.458615
2012-04-16 06:59:57 51°13.636 2°56.019 9.5489 3.032951 27.364882 -2.458615
2012-04-16 07:00:57 51°13.636 2°56.019 9.5502 3.033779 27.368353 -2.458615
2012-04-16 07:01:57 51°13.636 2°56.019 9.5497 3.034296 27.373504 -2.458615
2012-04-16 07:02:57 51°13.636 2°56.02 9.5481 3.035847 27.38964 -2.458615
2012-04-16 07:03:58 51°13.636 2°56.019 9.5296 3.041226 27.448008 -2.458615
2012-04-16 07:04:57 51°13.636 2°56.019 9.534 3.033572 27.382659 -2.458615
2012-04-16 07:05:57 51°13.635 2°56.02 9.5341 3.029125 27.336977 -2.458615
2012-04-16 07:06:57 51°13.635 2°56.019 9.5335 3.02447 27.288569 -2.458615
2012-04-16 07:07:57 51°13.636 2°56.019 9.5359 2.981446 26.861119 -2.458615
2012-04-16 07:08:57 51°13.636 2°56.02 9.5409 2.97886 26.831408 -2.458615
2012-04-16 07:09:57 51°13.635 2°56.019 9.825 2.953316 26.569098 -2.458615
2012-04-16 07:10:57 51°13.634 2°56.019 9.8556 2.977205 26.80495 -2.458615
2012-04-16 07:11:57 51°13.642 2°55.976 9.9339 2.984962 26.882683 -2.458615
2012-04-16 07:12:57 51°13.666 2°55.878 9.992 2.983617 26.865309 -2.458615
2012-04-16 07:13:57 51°13.712 2°55.775 10.0515 2.986823 26.890471 -2.458615
2012-04-16 07:14:57 51°13.768 2°55.679 10.1405 2.991994 26.922418 -2.458615
2012-04-16 07:15:57 51°13.841 2°55.611 10.2263 2.982065 26.791214 -2.458615
2012-04-16 07:16:57 51°13.911 2°55.597 10.2879 2.99251 26.860101 -2.458615
2012-04-16 07:17:57 51°13.952 2°55.634 10.3504 2.978134 26.685343 -2.458615
2012-04-16 07:18:57 51°13.971 2°55.567 9.3363 3.047015 27.246643 -2.458615
2012-04-16 07:19:57 51°14.065 2°55.47 9.2256 3.000477 27.217251 -2.458615
2012-04-16 07:20:57 51°14.191 2°55.359 9.226 2.964384 26.88588 -2.458615
2012-04-16 07:21:57 51°14.322 2°55.236 9.1039 3.007925 27.363223 -2.458615
2012-04-16 07:22:57 51°14.456 2°55.099 9.0283 3.07133 28.104119 -2.458615
2012-04-16 07:23:57 51°14.615 2°54.947 8.9276 3.136191 28.806626 -2.458615
2012-04-16 07:24:56 51°14.76 2°54.762 8.9302 3.173747 29.249823 -2.458615
2012-04-16 07:25:54 51°14.902 2°54.565 8.9662 3.194646 29.454757 -2.458615
2012-04-16 07:26:54 51°15.05 2°54.376 8.949 3.207683 29.569777 -2.458615
2012-04-16 07:27:54 51°15.2 2°54.2 8.9797 3.208303 29.566361 -2.458615
2012-04-16 07:28:54 51°15.347 2°54.009 8.9611 3.21089 29.602499 -2.458615
2012-04-16 07:29:54 51°15.498 2°53.832 8.9337 3.216581 29.668846 -2.458615
2012-04-16 07:30:54 51°15.652 2°53.652 8.9119 3.222583 29.747476 -2.458615
2012-04-16 07:31:54 51°15.817 2°53.504 8.8955 3.224963 29.803575 -2.458615
2012-04-16 07:32:54 51°15.983 2°53.358 8.8712 3.228378 29.849129 -2.458615
2012-04-16 07:33:54 51°16.155 2°53.223 8.8169 3.233448 29.922332 -2.458615
2012-04-16 07:34:54 51°16.323 2°53.083 8.8548 3.265422 30.261674 -2.458615
2012-04-16 07:35:54 51°16.489 2°52.939 8.8594 3.280531 30.40904 -2.458615
2012-04-16 07:36:54 51°16.66 2°52.813 8.8714 3.287257 30.467255 -2.458615
2012-04-16 07:37:54 51°16.832 2°52.682 8.8534 3.293052 30.512784 -2.458615
2012-04-16 07:38:54 51°16.998 2°52.536 8.8526 3.298951 30.58579 -2.458615
2012-04-16 07:39:54 51°17.166 2°52.41 8.8497 3.302987 30.624913 -2.458615
2012-04-16 07:40:54 51°17.341 2°52.296 8.8305 3.301745 30.626965 -2.458615
2012-04-16 07:41:54 51°17.514 2°52.166 8.8202 3.297709 30.599513 -2.458615
2012-04-16 07:42:54 51°17.681 2°52.037 8.8075 3.298744 30.618732 -2.458615
2012-04-16 07:43:54 51°17.852 2°51.921 8.7947 3.297192 30.614471 -2.458615
2012-04-16 07:44:54 51°18.026 2°51.799 8.7697 3.294812 30.600129 -2.458615
2012-04-16 07:45:54 51°18.198 2°51.674 8.7601 3.296779 30.643806 -2.458615
2012-04-16 07:46:54 51°18.367 2°51.535 8.7573 3.294502 30.62818 -2.458615
2012-04-16 07:47:54 51°18.54 2°51.415 8.7554 3.294916 30.630097 -2.458615
2012-04-16 07:48:54 51°18.718 2°51.295 8.7472 3.298021 30.666771 -2.458615
2012-04-16 07:49:54 51°18.881 2°51.165 8.7715 3.297089 30.661091 -2.458615
2012-04-16 07:50:54 51°19.052 2°51.046 8.8034 3.283636 30.496049 -2.458615
2012-04-16 07:51:54 51°19.23 2°50.937 8.8074 3.279082 30.429805 -2.458615
2012-04-16 07:52:54 51°19.389 2°50.784 8.7936 3.265423 30.287899 -2.458615
2012-04-16 07:53:54 51°19.541 2°50.619 8.7554 3.278876 30.44553 -2.458615
2012-04-16 07:54:55 51°19.699 2°50.467 8.7664 3.29088 30.587753 -2.458615
2012-04-16 07:55:56 51°19.845 2°50.314 8.7756 3.296986 30.637336 -2.458615
2012-04-16 07:56:56 51°19.994 2°50.163 8.7697 3.292225 30.587552 -2.458615
2012-04-16 07:57:54 51°20.15 2°50.025 8.7703 3.28674 30.53578 -2.458615
2012-04-16 07:58:54 51°20.31 2°49.868 8.7496 3.287672 30.548484 -2.458615
2012-04-16 07:59:55 51°20.469 2°49.708 8.7206 3.28819 30.573318 -2.458615
2012-04-16 08:00:55 51°20.625 2°49.555 8.6563 3.284154 30.560632 -2.458615
2012-04-16 08:01:54 51°20.782 2°49.404 8.614 3.286017 30.637022 -2.458615
2012-04-16 08:02:54 51°20.947 2°49.253 8.609 3.292123 30.723709 -2.458615
2012-04-16 08:03:54 51°21.112 2°49.103 8.5923 3.294607 30.758067 -2.458615
2012-04-16 08:04:54 51°21.276 2°48.954 8.5812 3.293676 30.75948 -2.458615
2012-04-16 08:05:56 51°21.44 2°48.799 8.5338 3.297402 30.813846 -2.458615
2012-04-16 08:06:55 51°21.594 2°48.65 8.4968 3.297195 30.851315 -2.458615
2012-04-16 08:07:54 51°21.756 2°48.516 8.4644 3.287882 30.784066 -2.458615
2012-04-16 08:08:54 51°21.923 2°48.373 8.4533 3.289227 30.824206 -2.458615
2012-04-16 08:09:54 51°22.081 2°48.213 8.4299 3.289952 30.844443 -2.458615
2012-04-16 08:10:54 51°22.247 2°48.057 8.4055 3.290366 30.870229 -2.458615
2012-04-16 08:11:54 51°22.415 2°47.913 8.3882 3.29285 30.913593 -2.458615
2012-04-16 08:12:54 51°22.58 2°47.765 8.3728 3.294609 30.945474 -2.458615
2012-04-16 08:13:54 51°22.728 2°47.579 8.3522 3.294092 30.956079 -2.458615
2012-04-16 08:14:55 51°22.864 2°47.366 8.3416 3.298335 31.017898 -2.458615
2012-04-16 08:15:54 51°23 2°47.173 8.3522 3.300612 31.044835 -2.458615
2012-04-16 08:16:54 51°23.142 2°46.989 8.3659 3.300612 31.034402 -2.458615
2012-04-16 08:17:54 51°23.283 2°46.793 8.3825 3.300094 31.017784 -2.458615
2012-04-16 08:18:54 51°23.405 2°46.568 8.3915 3.300198 31.006042 -2.458615
2012-04-16 08:19:54 51°23.527 2°46.341 8.3905 3.295334 30.949016 -2.458615
2012-04-16 08:20:54 51°23.657 2°46.127 8.3905 3.295955 30.954679 -2.458615
2012-04-16 08:21:54 51°23.789 2°45.909 8.3918 3.291401 30.908098 -2.458615
2012-04-16 08:22:54 51°23.917 2°45.689 8.3879 3.28602 30.852116 -2.458615
2012-04-16 08:23:54 51°24.048 2°45.469 8.3741 3.38641 31.90452 -2.458615
2012-04-16 08:24:54 51°24.172 2°45.249 8.3732 3.396244 32.015585 -2.458615
2012-04-16 08:25:54 51°24.294 2°45.017 8.3572 3.401212 32.070041 -2.458615
2012-04-16 08:26:54 51°24.406 2°44.777 8.3295 3.404421 32.124374 -2.458615
2012-04-16 08:27:54 51°24.486 2°44.531 8.316 3.410632 32.207741 -2.458615
2012-04-16 08:28:54 51°24.537 2°44.373 8.3015 3.411357 32.231186 -2.458615
2012-04-16 08:29:54 51°24.584 2°44.288 8.3036 3.410529 32.231687 -2.458615
2012-04-16 08:30:54 51°24.628 2°44.138 8.3085 3.411253 32.23678 -2.458615
2012-04-16 08:31:54 51°24.647 2°43.982 8.293 3.411874 32.242458 -2.458615
2012-04-16 08:32:54 51°24.657 2°43.892 8.2975 3.413324 32.268523 -2.458615
2012-04-16 08:33:54 51°24.663 2°43.827 8.2992 3.415187 32.285562 -2.458615
2012-04-16 08:34:54 51°24.669 2°43.793 8.3001 3.416015 32.29425 -2.458615
2012-04-16 08:35:54 51°24.673 2°43.774 8.3012 3.415601 32.289069 -2.458615
2012-04-16 08:36:54 51°24.68 2°43.753 8.3005 3.416222 32.294748 -2.458615
2012-04-16 08:37:54 51°24.677 2°43.755 8.301 3.415808 32.289567 -2.458615
2012-04-16 08:38:54 51°24.674 2°43.718 8.3017 3.414876 32.280631 -2.458615
2012-04-16 08:39:54 51°24.671 2°43.706 8.3044 3.416015 32.290903 -2.458615
2012-04-16 08:40:54 51°24.669 2°43.709 8.3058 3.416118 32.290315 -2.458615
2012-04-16 08:41:54 51°24.666 2°43.717 8.3074 3.415808 32.286221 -2.458615
2012-04-16 08:42:54 51°24.662 2°43.729 8.3068 3.415394 32.281878 -2.458615
2012-04-16 08:43:54 51°24.658 2°43.745 8.3069 3.415187 32.280543 -2.458615
2012-04-16 08:44:54 51°24.653 2°43.761 8.3072 3.410943 32.236029 -2.458615
2012-04-16 08:45:54 51°24.651 2°43.758 8.3082 3.410736 32.232188 -2.458615
2012-04-16 08:46:54 51°24.669 2°43.725 8.3084 3.411667 32.239452 -2.458615
2012-04-16 08:47:54 51°24.679 2°43.715 8.3062 3.410115 32.22651 -2.458615
2012-04-16 08:48:54 51°24.677 2°43.727 8.3047 3.409494 32.221666 -2.458615
2012-04-16 08:49:54 51°24.673 2°43.742 8.3083 3.410218 32.229265 -2.458615
2012-04-16 08:50:54 51°24.669 2°43.758 8.3091 3.410632 32.231102 -2.458615
2012-04-16 08:51:54 51°24.663 2°43.777 8.3103 3.410839 32.231603 -2.458615
2012-04-16 08:52:54 51°24.659 2°43.79 8.3153 3.409701 32.216325 -2.458615
2012-04-16 08:53:54 51°24.66 2°43.776 8.3133 3.411357 32.232021 -2.458615
2012-04-16 08:54:54 51°24.671 2°43.75 8.311 3.410943 32.22768 -2.458615
2012-04-16 08:55:54 51°24.671 2°43.714 8.3138 3.410218 32.222586 -2.458615
2012-04-16 08:56:54 51°24.674 2°43.704 8.3119 3.409804 32.216576 -2.458615
2012-04-16 08:57:54 51°24.674 2°43.708 8.3106 3.40908 32.210648 -2.458615
2012-04-16 08:58:54 51°24.672 2°43.721 8.3124 3.409494 32.216658 -2.458615
2012-04-16 08:59:54 51°24.668 2°43.742 8.3111 3.409287 32.212818 -2.458615
2012-04-16 09:00:54 51°24.665 2°43.767 8.3105 3.40939 32.215573 -2.458615
2012-04-16 09:01:54 51°24.663 2°43.795 8.3105 3.407837 32.200127 -2.458615
2012-04-16 09:02:54 51°24.66 2°43.811 8.3097 3.407527 32.196871 -2.458615
2012-04-16 09:03:54 51°24.656 2°43.772 8.3112 3.405974 32.179758 -2.458615
2012-04-16 09:04:54 51°24.667 2°43.714 8.3125 3.40525 32.169662 -2.458615
2012-04-16 09:05:54 51°24.676 2°43.701 8.3132 3.406285 32.180513 -2.458615
2012-04-16 09:06:54 51°24.675 2°43.717 8.31 3.403283 32.151545 -2.458615
2012-04-16 09:07:54 51°24.672 2°43.738 8.3105 3.401834 32.137187 -2.458615
2012-04-16 09:08:54 51°24.669 2°43.761 8.3131 3.401834 32.136355 -2.458615
2012-04-16 09:09:54 51°24.665 2°43.786 8.3125 3.401627 32.13252 -2.458615
2012-04-16 09:10:54 51°24.663 2°43.802 8.3164 3.401627 32.13252 -2.458615
2012-04-16 09:11:54 51°24.666 2°43.786 8.3146 3.400799 32.119682 -2.458615
2012-04-16 09:12:54 51°24.669 2°43.746 8.3107 3.400385 32.117838 -2.458615
2012-04-16 09:13:54 51°24.675 2°43.698 8.3103 3.398936 32.104314 -2.458615
2012-04-16 09:14:54 51°24.679 2°43.699 8.3098 3.396141 32.079182 -2.458615
2012-04-16 09:15:54 51°24.677 2°43.716 8.3083 3.39552 32.072673 -2.458615
2012-04-16 09:16:54 51°24.672 2°43.713 8.3098 3.395106 32.069996 -2.458615
2012-04-16 09:17:54 51°24.669 2°43.71 8.3073 3.395002 32.06725 -2.458615
2012-04-16 09:18:54 51°24.669 2°43.716 8.3078 3.394588 32.063741 -2.458615
2012-04-16 09:19:54 51°24.668 2°43.727 8.3085 3.394485 32.061826 -2.458615
2012-04-16 09:20:54 51°24.665 2°43.746 8.3136 3.394381 32.059081 -2.458615
2012-04-16 09:21:54 51°24.664 2°43.768 8.3096 3.394588 32.059589 -2.458615
2012-04-16 09:22:54 51°24.661 2°43.787 8.3094 3.394485 32.059335 -2.458615
2012-04-16 09:23:54 51°24.666 2°43.77 8.3078 3.393657 32.050658 -2.458615
2012-04-16 09:24:54 51°24.677 2°43.732 8.3066 3.393346 32.049065 -2.458615
2012-04-16 09:25:54 51°24.67 2°43.7 8.3067 3.393243 32.050471 -2.458615
2012-04-16 09:26:54 51°24.67 2°43.704 8.3072 3.389827 32.013021 -2.458615
2012-04-16 09:27:54 51°24.67 2°43.716 8.3072 3.372438 31.832557 -2.458615
2012-04-16 09:28:54 51°24.668 2°43.734 8.3065 3.371093 31.817647 -2.458615
2012-04-16 09:29:54 51°24.665 2°43.75 8.3073 3.370265 31.808979 -2.458615
2012-04-16 09:30:54 51°24.664 2°43.769 8.3079 3.369437 31.799488 -2.458615
2012-04-16 09:31:54 51°24.663 2°43.786 8.3073 3.369437 31.801135 -2.458615
2012-04-16 09:32:53 51°24.662 2°43.802 8.3045 3.369437 31.800311 -2.458615
2012-04-16 09:33:54 51°24.672 2°43.782 8.3057 3.369437 31.800311 -2.458615
2012-04-16 09:34:53 51°24.725 2°43.778 8.3042 3.368919 31.794071 -2.458615
2012-04-16 09:35:54 51°24.763 2°43.888 8.3079 3.369437 31.803606 -2.458615
2012-04-16 09:36:53 51°24.813 2°44.128 8.3119 3.368195 31.791428 -2.458615
2012-04-16 09:37:53 51°24.886 2°44.445 8.3205 3.364262 31.742858 -2.458615
2012-04-16 09:38:53 51°24.959 2°44.772 8.3299 3.363847 31.729486 -2.458615
2012-04-16 09:39:53 51°25.028 2°45.104 8.3366 3.362812 31.714554 -2.458615
2012-04-16 09:40:54 51°25.102 2°45.444 8.3358 3.416532 32.276262 -2.458615
2012-04-16 09:41:53 51°25.171 2°45.773 8.3392 3.414876 32.269761 -2.458615
2012-04-16 09:42:54 51°25.237 2°46.112 8.3236 3.414048 32.262748 -2.458615
2012-04-16 09:43:53 51°25.299 2°46.44 8.314 3.411667 32.249477 -2.458615
2012-04-16 09:44:54 51°25.362 2°46.777 8.3154 3.408769 32.227427 -2.458615
2012-04-16 09:45:53 51°25.433 2°47.098 8.3271 3.406906 32.208715 -2.458615
2012-04-16 09:46:54 51°25.5 2°47.439 8.3629 3.404629 32.165651 -2.458615
2012-04-16 09:47:53 51°25.565 2°47.765 8.3837 3.402455 32.116245 -2.458615
2012-04-16 09:48:53 51°25.636 2°48.095 8.4003 3.399556 32.066807 -2.458615
2012-04-16 09:49:53 51°25.708 2°48.431 8.4034 3.398107 32.040869 -2.458615
2012-04-16 09:50:53 51°25.783 2°48.765 8.3945 3.395312 32.013289 -2.458615
2012-04-16 09:51:54 51°25.875 2°49.098 8.3918 3.393553 31.997364 -2.458615
2012-04-16 09:52:53 51°25.964 2°49.422 8.3933 3.391068 31.97634 -2.458615
2012-04-16 09:53:54 51°26.051 2°49.755 8.4019 3.38817 31.936114 -2.458615
2012-04-16 09:54:53 51°26.138 2°50.083 8.407 3.385789 31.905448 -2.458615
2012-04-16 09:55:53 51°26.231 2°50.416 8.415 3.38434 31.886181 -2.458615
2012-04-16 09:56:53 51°26.318 2°50.753 8.4166 3.383823 31.877477 -2.458615
2012-04-16 09:57:53 51°26.407 2°51.088 8.4164 3.384237 31.877685 -2.458615
2012-04-16 09:58:53 51°26.498 2°51.423 8.4157 3.384754 31.88886 -2.458615
2012-04-16 09:59:53 51°26.562 2°51.664 8.4204 3.386721 31.906941 -2.458615
2012-04-16 10:00:54 51°26.622 2°51.781 8.4193 3.387756 31.917759 -2.458615
2012-04-16 10:01:53 51°26.688 2°51.864 8.4164 3.388895 31.928834 -2.458615
2012-04-16 10:02:54 51°26.748 2°51.848 8.415 3.389619 31.939708 -2.458615
2012-04-16 10:03:53 51°26.736 2°51.763 8.3867 3.391379 31.96058 -2.458615
2012-04-16 10:04:53 51°26.734 2°51.692 8.3492 3.393242 32.010669 -2.458615
2012-04-16 10:05:53 51°26.736 2°51.691 8.3509 3.393346 32.029153 -2.458615
2012-04-16 10:06:53 51°26.738 2°51.703 8.3513 3.393553 32.031321 -2.458615
2012-04-16 10:07:53 51°26.739 2°51.722 8.3577 3.393967 32.033999 -2.458615
2012-04-16 10:08:53 51°26.738 2°51.742 8.36 3.394277 32.033934 -2.458615
2012-04-16 10:09:53 51°26.737 2°51.757 8.3666 3.394277 32.032276 -2.458615
2012-04-16 10:10:53 51°26.735 2°51.759 8.3725 3.394484 32.02947 -2.458615
2012-04-16 10:11:53 51°26.736 2°51.755 8.39 3.393967 32.009972 -2.458615
2012-04-16 10:12:53 51°26.736 2°51.757 8.4039 3.393242 31.988327 -2.458615
2012-04-16 10:13:53 51°26.738 2°51.757 8.4146 3.395209 32.000624 -2.458615
2012-04-16 10:14:53 51°26.74 2°51.756 8.421 3.395001 31.989366 -2.458615
2012-04-16 10:15:53 51°26.742 2°51.756 8.4322 3.394484 31.978173 -2.458615
2012-04-16 10:16:53 51°26.745 2°51.754 8.4341 3.39438 31.96966 -2.458615
2012-04-16 10:17:53 51°26.748 2°51.754 8.4363 3.39407 31.960638 -2.458615
2012-04-16 10:18:53 51°26.751 2°51.752 8.4376 3.39407 31.959813 -2.458615
2012-04-16 10:19:53 51°26.755 2°51.75 8.4386 3.393759 31.956569 -2.458615
2012-04-16 10:20:53 51°26.755 2°51.749 8.44 3.393552 31.956881 -2.458615
2012-04-16 10:21:53 51°26.756 2°51.749 8.4319 3.393345 31.956369 -2.458615
2012-04-16 10:22:53 51°26.757 2°51.749 8.4342 3.393242 31.956113 -2.458615
2012-04-16 10:23:53 51°26.756 2°51.749 8.4265 3.393035 31.956425 -2.458615
2012-04-16 10:24:53 51°26.757 2°51.748 8.4261 3.392414 31.952411 -2.458615
2012-04-16 10:25:53 51°26.757 2°51.749 8.4281 3.392414 31.949936 -2.458615
2012-04-16 10:26:53 51°26.756 2°51.748 8.4294 3.392 31.94726 -2.458615
2012-04-16 10:27:53 51°26.757 2°51.749 8.4183 3.391379 31.945721 -2.458615
2012-04-16 10:28:53 51°26.757 2°51.749 8.4171 3.390654 31.940624 -2.458615
2012-04-16 10:29:54 51°26.757 2°51.747 8.4098 3.390344 31.940679 -2.458615
2012-04-16 10:30:53 51°26.756 2°51.747 8.4089 3.390033 31.940735 -2.458615
2012-04-16 10:31:53 51°26.756 2°51.747 8.4085 3.389619 31.941359 -2.458615
2012-04-16 10:32:53 51°26.757 2°51.747 8.4066 3.389309 31.937287 -2.458615
2012-04-16 10:33:53 51°26.757 2°51.746 8.3993 3.389205 31.938681 -2.458615
2012-04-16 10:34:53 51°26.758 2°51.745 8.4055 3.388791 31.936829 -2.458615
2012-04-16 10:35:53 51°26.759 2°51.745 8.4077 3.388377 31.929199 -2.458615
2012-04-16 10:36:53 51°26.758 2°51.749 8.4142 3.387963 31.922397 -2.458615
2012-04-16 10:37:53 51°26.755 2°51.751 8.4137 3.387756 31.918583 -2.458615
2012-04-16 10:38:54 51°26.755 2°51.75 8.4158 3.387445 31.911215 -2.458615
2012-04-16 10:39:53 51°26.754 2°51.75 8.4174 3.387031 31.903592 -2.458615
2012-04-16 10:40:53 51°26.755 2°51.752 8.4201 3.386617 31.897618 -2.458615
2012-04-16 10:41:53 51°26.755 2°51.75 8.4238 3.38641 31.891336 -2.458615
2012-04-16 10:42:53 51°26.754 2°51.75 8.4272 3.3861 31.886445 -2.458615
2012-04-16 10:43:53 51°26.753 2°51.751 8.4266 3.385893 31.883459 -2.458615
2012-04-16 10:44:53 51°26.752 2°51.751 8.4294 3.385686 31.881297 -2.458615
2012-04-16 10:45:53 51°26.754 2°51.75 8.4285 3.385996 31.882894 -2.458615
2012-04-16 10:46:53 51°26.754 2°51.751 8.4321 3.385789 31.879908 -2.458615
2012-04-16 10:47:54 51°26.754 2°51.75 8.4322 3.385789 31.879908 -2.458615
2012-04-16 10:48:53 51°26.752 2°51.752 8.4307 3.385893 31.879343 -2.458615
2012-04-16 10:49:53 51°26.754 2°51.751 8.4318 3.385686 31.877181 -2.458615
2012-04-16 10:50:53 51°26.754 2°51.749 8.4292 3.385582 31.8761 -2.458615
2012-04-16 10:51:53 51°26.755 2°51.747 8.4285 3.385375 31.876407 -2.458615
2012-04-16 10:52:53 51°26.755 2°51.747 8.4289 3.385272 31.876149 -2.458615
2012-04-16 10:53:53 51°26.757 2°51.749 8.4265 3.385168 31.872599 -2.458615
2012-04-16 10:54:53 51°26.758 2°51.746 8.4319 3.384858 31.871824 -2.458615
2012-04-16 10:55:53 51°26.759 2°51.745 8.4318 3.384858 31.869355 -2.458615
2012-04-16 10:56:53 51°26.76 2°51.744 8.4335 3.384754 31.866629 -2.458615
2012-04-16 10:57:53 51°26.759 2°51.744 8.4367 3.384754 31.864983 -2.458615
2012-04-16 10:58:54 51°26.759 2°51.743 8.437 3.384754 31.864983 -2.458615
2012-04-16 10:59:53 51°26.759 2°51.743 8.4375 3.384858 31.863596 -2.458615
2012-04-16 11:00:53 51°26.759 2°51.743 8.4401 3.384651 31.862257 -2.458615
2012-04-16 11:01:53 51°26.759 2°51.743 8.4402 3.384857 31.859484 -2.458615
2012-04-16 11:02:53 51°26.758 2°51.744 8.443 3.384857 31.859484 -2.458615
2012-04-16 11:03:53 51°26.759 2°51.747 8.4402 3.384754 31.859226 -2.458615
2012-04-16 11:04:53 51°26.759 2°51.744 8.4386 3.384547 31.856242 -2.458615
2012-04-16 11:05:53 51°26.757 2°51.73 8.4401 3.38434 31.854903 -2.458615
2012-04-16 11:06:53 51°26.758 2°51.719 8.4412 3.38434 31.853259 -2.458615
2012-04-16 11:07:53 51°26.757 2°51.709 8.4423 3.384236 31.852178 -2.458615
2012-04-16 11:08:52 51°26.753 2°51.699 8.443 3.384133 31.849453 -2.458615
2012-04-16 11:09:52 51°26.751 2°51.687 8.4421 3.384029 31.847551 -2.458615
2012-04-16 11:10:52 51°26.752 2°51.673 8.4434 3.383822 31.846211 -2.458615
2012-04-16 11:11:52 51°26.756 2°51.669 8.4492 3.383615 31.84405 -2.458615
2012-04-16 11:12:52 51°26.762 2°51.67 8.446 3.383615 31.841585 -2.458615
2012-04-16 11:13:54 51°26.768 2°51.674 8.4447 3.383512 31.84297 -2.458615
2012-04-16 11:14:54 51°26.786 2°51.651 8.4461 3.383512 31.842148 -2.458615
2012-04-16 11:15:53 51°26.842 2°51.598 8.4453 3.38258 31.83078 -2.458615
2012-04-16 11:16:53 51°26.958 2°51.592 8.447 3.383201 31.836441 -2.458615
2012-04-16 11:17:53 51°27.132 2°51.58 8.4448 3.384029 31.846729 -2.458615
2012-04-16 11:18:53 51°27.332 2°51.592 8.4282 3.386617 31.873743 -2.458615
2012-04-16 11:19:53 51°27.534 2°51.662 8.399 3.389515 31.923778 -2.458615
2012-04-16 11:20:53 51°27.738 2°51.719 8.3655 3.39231 31.971972 -2.458615
2012-04-16 11:21:54 51°27.943 2°51.733 8.3391 3.393242 32.019781 -2.458615
2012-04-16 11:22:53 51°28.145 2°51.744 8.3386 3.394588 32.050457 -2.458615
2012-04-16 11:23:53 51°28.346 2°51.771 8.349 3.395209 32.056133 -2.458615
2012-04-16 11:24:53 51°28.548 2°51.789 8.352 3.396969 32.065434 -2.458615
2012-04-16 11:25:53 51°28.753 2°51.803 8.3396 3.398211 32.078443 -2.458615
2012-04-16 11:26:54 51°28.964 2°51.833 8.3376 3.398314 32.088664 -2.458615
2012-04-16 11:27:53 51°29.162 2°51.868 8.3412 3.398418 32.095565 -2.458615
2012-04-16 11:28:53 51°29.328 2°52.059 8.329 3.39935 32.099508 -2.458615
2012-04-16 11:29:52 51°29.404 2°52.364 8.3325 3.400592 32.120008 -2.458615
2012-04-16 11:30:52 51°29.487 2°52.674 8.3301 3.40142 32.135345 -2.458615
2012-04-16 11:31:52 51°29.575 2°52.982 8.3388 3.401213 32.129013 -2.458615
2012-04-16 11:32:52 51°29.657 2°53.292 8.3449 3.401937 32.133278 -2.458615
2012-04-16 11:33:52 51°29.738 2°53.607 8.3425 3.403179 32.143799 -2.458615
2012-04-16 11:34:54 51°29.828 2°53.924 8.3446 3.403283 32.142387 -2.458615
2012-04-16 11:35:53 51°29.906 2°54.228 8.3476 3.401316 32.120114 -2.458615
2012-04-16 11:36:53 51°29.986 2°54.542 8.3504 3.399349 32.096184 -2.458615
2012-04-16 11:37:53 51°30.071 2°54.853 8.351 3.397176 32.075074 -2.458615
2012-04-16 11:38:53 51°30.157 2°55.159 8.3665 3.394485 32.046054 -2.458615
2012-04-16 11:39:53 51°30.238 2°55.47 8.3693 3.392 32.004293 -2.458615
2012-04-16 11:40:53 51°30.321 2°55.779 8.3867 3.39376 32.020228 -2.458615
2012-04-16 11:41:53 51°30.405 2°56.088 8.4164 3.392724 31.986221 -2.458615
2012-04-16 11:42:53 51°30.494 2°56.396 8.4107 3.391068 31.954031 -2.458615
2012-04-16 11:43:53 51°30.578 2°56.707 8.4096 3.390551 31.951097 -2.458615
2012-04-16 11:44:53 51°30.66 2°57.014 8.4117 3.390137 31.947594 -2.458615
2012-04-16 11:45:53 51°30.746 2°57.326 8.416 3.390033 31.942385 -2.458615
2012-04-16 11:46:53 51°30.829 2°57.637 8.4143 3.391793 31.959953 -2.458615
2012-04-16 11:47:53 51°30.913 2°57.95 8.4113 3.392517 31.968354 -2.458615
2012-04-16 11:48:53 51°30.996 2°58.261 8.4055 3.393966 31.983504 -2.458615
2012-04-16 11:49:53 51°31.082 2°58.568 8.3967 3.393759 31.990432 -2.458615
2012-04-16 11:50:53 51°31.205 2°58.76 8.3991 3.393242 31.991635 -2.458615
2012-04-16 11:51:52 51°31.344 2°58.815 8.4065 3.391482 31.967445 -2.458615
2012-04-16 11:52:53 51°31.482 2°58.817 8.3983 3.390344 31.953062 -2.458615
2012-04-16 11:53:53 51°31.576 2°58.825 8.3877 3.381235 31.866081 -2.458615
2012-04-16 11:54:52 51°31.634 2°58.824 8.3906 3.381442 31.872365 -2.458615
2012-04-16 11:55:52 51°31.674 2°58.822 8.3906 3.381856 31.875046 -2.458615
2012-04-16 11:56:52 51°31.747 2°58.798 8.39 3.382167 31.878292 -2.458615
2012-04-16 11:57:52 51°31.855 2°58.684 8.3892 3.382788 31.883137 -2.458615
2012-04-16 11:58:53 51°31.956 2°58.536 8.3864 3.383616 31.890145 -2.458615
2012-04-16 11:59:53 51°32.05 2°58.413 8.3855 3.384134 31.900504 -2.458615
2012-04-16 12:00:53 51°32.142 2°58.288 8.3824 3.383513 31.897309 -2.458615
2012-04-16 12:01:53 51°32.223 2°58.16 8.3808 3.38372 31.896999 -2.458615
2012-04-16 12:02:53 51°32.307 2°58.038 8.3795 3.383306 31.893495 -2.458615
2012-04-16 12:03:53 51°32.39 2°57.918 8.3795 3.382995 31.891897 -2.458615
2012-04-16 12:04:54 51°32.476 2°57.791 8.3737 3.382892 31.894113 -2.458615
2012-04-16 12:05:53 51°32.562 2°57.668 8.3761 3.383202 31.899011 -2.458615
2012-04-16 12:06:52 51°32.652 2°57.544 8.371 3.38372 31.902774 -2.458615
2012-04-16 12:07:53 51°32.749 2°57.422 8.2837 3.387032 31.964699 -2.458615
2012-04-16 12:08:53 51°32.83 2°57.279 8.2274 3.389207 32.053846 -2.458615
2012-04-16 12:09:53 51°32.9 2°57.125 8.2026 3.389518 32.101253 -2.458615
2012-04-16 12:10:53 51°32.963 2°56.984 8.196 3.389414 32.119364 -2.458615
2012-04-16 12:11:53 51°33.015 2°56.863 8.1938 3.390242 32.130576 -2.458615
2012-04-16 12:12:53 51°33.069 2°56.748 8.1965 3.390242 32.134755 -2.458615
2012-04-16 12:13:53 51°33.089 2°56.664 8.1997 3.391692 32.147486 -2.458615
2012-04-16 12:14:53 51°33.096 2°56.594 8.1933 3.392106 32.15184 -2.458615
2012-04-16 12:15:53 51°33.125 2°56.515 8.1983 3.392209 32.153764 -2.458615
2012-04-16 12:16:53 51°33.158 2°56.434 8.2047 3.392313 32.152344 -2.458615
2012-04-16 12:17:53 51°33.19 2°56.348 8.2068 3.39283 32.154442 -2.458615
2012-04-16 12:18:53 51°33.213 2°56.253 8.2103 3.393348 32.155703 -2.458615
2012-04-16 12:19:53 51°33.257 2°56.21 8.1963 3.393141 32.157707 -2.458615
2012-04-16 12:20:53 51°33.299 2°56.253 8.1942 3.392727 32.164227 -2.458615
2012-04-16 12:21:53 51°33.32 2°56.335 8.192 3.392313 32.162382 -2.458615
2012-04-16 12:22:53 51°33.343 2°56.422 8.1989 3.39252 32.163722 -2.458615
2012-04-16 12:23:53 51°33.346 2°56.515 8.2011 3.392209 32.158783 -2.458615
2012-04-16 12:24:53 51°33.347 2°56.609 8.2054 3.392106 32.156021 -2.458615
2012-04-16 12:25:53 51°33.314 2°56.652 8.2079 3.392623 32.153937 -2.458615
2012-04-16 12:26:53 51°33.284 2°56.635 8.2103 3.392416 32.150088 -2.458615
2012-04-16 12:27:53 51°33.271 2°56.609 8.209 3.392209 32.144568 -2.458615
2012-04-16 12:28:53 51°33.261 2°56.577 8.208 3.391898 32.141303 -2.458615
2012-04-16 12:29:53 51°33.251 2°56.528 8.2144 3.391691 32.137456 -2.458615
2012-04-16 12:30:53 51°33.245 2°56.461 8.2022 3.391381 32.135027 -2.458615
2012-04-16 12:31:53 51°33.242 2°56.396 8.2127 3.390967 32.133181 -2.458615
2012-04-16 12:32:53 51°33.241 2°56.341 8.2143 3.390863 32.129586 -2.458615
2012-04-16 12:33:53 51°33.239 2°56.292 8.2101 3.390863 32.12708 -2.458615
2012-04-16 12:34:53 51°33.239 2°56.244 8.2101 3.390553 32.125487 -2.458615
2012-04-16 12:35:53 51°33.238 2°56.2 8.2058 3.390346 32.12331 -2.458615
2012-04-16 12:36:53 51°33.237 2°56.157 8.2016 3.389621 32.12154 -2.458615
2012-04-16 12:37:53 51°33.236 2°56.125 8.2047 3.389621 32.122375 -2.458615
2012-04-16 12:38:53 51°33.245 2°56.081 8.1902 3.390863 32.119565 -2.458615
2012-04-16 12:39:53 51°33.276 2°56.049 8.2032 3.390449 32.123563 -2.458615
2012-04-16 12:40:53 51°33.307 2°56.069 8.1971 3.390967 32.123158 -2.458615
2012-04-16 12:41:53 51°33.312 2°56.092 8.209 3.391174 32.120324 -2.458615
2012-04-16 12:42:53 51°33.311 2°56.104 8.2129 3.389932 32.106438 -2.458615
2012-04-16 12:43:53 51°33.309 2°56.108 8.248 3.388586 32.080628 -2.458615
2012-04-16 12:44:53 51°33.306 2°56.12 8.2569 3.391173 32.083639 -2.458615
2012-04-16 12:45:53 51°33.318 2°56.186 8.2021 3.388586 32.073129 -2.458615
2012-04-16 12:46:53 51°33.332 2°56.294 8.1908 3.387758 32.085266 -2.458615
2012-04-16 12:47:53 51°33.329 2°56.425 8.2173 3.385999 32.075948 -2.458615
2012-04-16 12:48:53 51°33.312 2°56.546 8.2127 3.383928 32.036704 -2.458615
2012-04-16 12:49:53 51°33.297 2°56.659 8.2124 3.381755 32.01554 -2.458615
2012-04-16 12:50:53 51°33.25 2°56.795 8.2138 3.381237 32.009274 -2.458615
2012-04-16 12:51:53 51°33.2 2°56.95 8.1979 3.38072 32.005502 -2.458615
2012-04-16 12:52:53 51°33.157 2°57.032 8.1895 3.378546 31.99182 -2.458615
2012-04-16 12:53:53 51°33.126 2°57.087 8.1871 3.37689 31.990223 -2.458615
2012-04-16 12:54:53 51°33.098 2°57.123 8.2327 3.377097 31.987408 -2.458615
2012-04-16 12:55:53 51°33.067 2°57.117 8.3867 3.377096 31.919363 -2.458615
2012-04-16 12:56:53 51°33.043 2°57.076 8.4158 3.381235 31.853729 -2.458615
2012-04-16 12:57:53 51°33.025 2°57.018 8.4329 3.383719 31.846775 -2.458615
2012-04-16 12:58:53 51°33.019 2°56.953 8.4245 3.38434 31.840931 -2.458615
2012-04-16 12:59:53 51°33.017 2°56.894 8.4023 3.38465 31.850746 -2.458615
2012-04-16 13:00:53 51°33.015 2°56.838 8.3885 3.385065 31.869872 -2.458615
2012-04-16 13:01:53 51°33.011 2°56.782 8.3299 3.385376 31.907718 -2.458615
2012-04-16 13:02:53 51°33.008 2°56.725 8.2662 3.384444 31.933476 -2.458615
2012-04-16 13:03:53 51°33.007 2°56.666 8.2544 3.381961 31.967883 -2.458615
2012-04-16 13:04:53 51°33.005 2°56.607 8.1913 3.380616 31.98281 -2.458615
2012-04-16 13:05:53 51°33.004 2°56.548 8.175 3.377097 31.985744 -2.458615
2012-04-16 13:06:53 51°33.003 2°56.489 8.173 3.374717 31.977362 -2.458615
2012-04-16 13:07:53 51°33.005 2°56.426 8.1682 3.37451 31.970197 -2.458615
2012-04-16 13:08:53 51°33.009 2°56.363 8.1728 3.374199 31.969428 -2.458615
2012-04-16 13:09:53 51°33.013 2°56.311 8.1784 3.373785 31.956765 -2.458615
2012-04-16 13:10:53 51°33.02 2°56.272 8.1735 3.373889 31.957021 -2.458615
2012-04-16 13:11:53 51°33.029 2°56.242 8.1633 3.372543 31.952855 -2.458615
2012-04-16 13:12:53 51°33.044 2°56.222 8.1606 3.371508 31.949458 -2.458615
2012-04-16 13:13:53 51°33.07 2°56.269 8.1797 3.371301 31.943127 -2.458615
2012-04-16 13:14:53 51°33.058 2°56.384 8.1793 3.371508 31.941978 -2.458615
2012-04-16 13:15:53 51°33.029 2°56.584 8.1697 3.371819 31.941087 -2.458615
2012-04-16 13:16:53 51°32.996 2°56.82 8.2748 3.37068 31.924973 -2.458615
2012-04-16 13:17:53 51°32.945 2°57.054 8.3267 3.374301 31.866922 -2.458615
2012-04-16 13:18:53 51°32.861 2°57.256 8.4082 3.375853 31.836983 -2.458615
2012-04-16 13:19:53 51°32.801 2°57.462 8.4288 3.37399 31.763256 -2.458615
2012-04-16 13:20:53 51°32.78 2°57.639 8.4523 3.371298 31.708136 -2.458615
2012-04-16 13:21:53 51°32.769 2°57.764 8.4332 3.369435 31.676444 -2.458615
2012-04-16 13:22:52 51°32.721 2°57.815 8.4175 3.369746 31.701757 -2.458615
2012-04-16 13:23:52 51°32.679 2°57.808 8.4209 3.367883 31.683955 -2.458615
2012-04-16 13:24:52 51°32.652 2°57.78 8.4222 3.367779 31.686146 -2.458615
2012-04-16 13:25:53 51°32.633 2°57.746 8.4218 3.367883 31.681502 -2.458615
2012-04-16 13:26:52 51°32.619 2°57.707 8.4191 3.368193 31.685559 -2.458615
2012-04-16 13:27:53 51°32.606 2°57.66 8.4282 3.367469 31.676365 -2.458615
2012-04-16 13:28:52 51°32.598 2°57.611 8.4278 3.367572 31.673358 -2.458615
2012-04-16 13:29:52 51°32.594 2°57.561 8.4406 3.366951 31.659527 -2.458615
2012-04-16 13:30:52 51°32.561 2°57.51 8.4033 3.359085 31.581586 -2.458615
2012-04-16 13:31:53 51°32.502 2°57.603 8.4115 3.357843 31.590645 -2.458615
2012-04-16 13:32:53 51°32.437 2°57.856 8.4555 3.363432 31.631809 -2.458615
2012-04-16 13:33:53 51°32.351 2°58.134 8.4551 3.362811 31.595982 -2.458615
2012-04-16 13:34:53 51°32.232 2°58.37 8.4428 3.363121 31.601661 -2.458615
2012-04-16 13:35:53 51°32.05 2°58.501 8.4514 3.362501 31.607413 -2.458615
2012-04-16 13:36:53 51°31.854 2°58.433 8.5008 3.362293 31.593847 -2.458615
2012-04-16 13:37:53 51°31.713 2°58.188 8.4817 3.361361 31.532929 -2.458615
2012-04-16 13:38:53 51°31.564 2°57.953 8.4679 3.363018 31.58267 -2.458615
2012-04-16 13:39:53 51°31.408 2°57.726 8.4736 3.361776 31.573803 -2.458615
2012-04-16 13:40:53 51°31.252 2°57.497 8.4699 3.361672 31.570284 -2.458615
2012-04-16 13:41:53 51°31.101 2°57.249 8.4706 3.360948 31.565993 -2.458615
2012-04-16 13:42:53 51°30.948 2°57.003 8.4972 3.359809 31.554135 -2.458615
2012-04-16 13:43:53 51°30.797 2°56.76 8.5378 3.360326 31.527842 -2.458615
2012-04-16 13:44:53 51°30.645 2°56.515 8.5454 3.364156 31.539276 -2.458615
2012-04-16 13:45:53 51°30.509 2°56.253 8.4976 3.365915 31.554324 -2.458615
2012-04-16 13:46:53 51°30.465 2°55.917 8.5095 3.363328 31.563135 -2.458615
2012-04-16 13:47:53 51°30.449 2°55.573 8.4915 3.361258 31.536722 -2.458615
2012-04-16 13:48:53 51°30.529 2°55.272 8.4751 3.359395 31.531949 -2.458615
2012-04-16 13:49:53 51°30.702 2°55.145 8.4758 3.356187 31.509105 -2.458615
2012-04-16 13:50:53 51°30.892 2°55.1 8.484 3.357325 31.517709 -2.458615
2012-04-16 13:51:53 51°31.086 2°55.071 8.5026 3.356808 31.505019 -2.458615
2012-04-16 13:52:53 51°31.17 2°54.981 8.4264 3.362397 31.562379 -2.458615
2012-04-16 13:53:53 51°31.155 2°54.893 8.4043 3.360017 31.600267 -2.458615
2012-04-16 13:54:53 51°31.112 2°54.869 8.4163 3.358154 31.596332 -2.458615
2012-04-16 13:55:53 51°31.074 2°54.864 8.4121 3.357222 31.578459 -2.458615
2012-04-16 13:56:53 51°31.037 2°54.853 8.4195 3.357843 31.583306 -2.458615
2012-04-16 13:57:53 51°31.001 2°54.828 8.4196 3.357429 31.574098 -2.458615
2012-04-16 13:58:53 51°30.97 2°54.791 8.4329 3.356394 31.560046 -2.458615
2012-04-16 13:59:53 51°30.945 2°54.747 8.4432 3.356291 31.548384 -2.458615
2012-04-16 14:00:53 51°30.922 2°54.7 8.4431 3.356084 31.537277 -2.458615
2012-04-16 14:01:53 51°30.907 2°54.651 8.4509 3.35567 31.53215 -2.458615
2012-04-16 14:02:53 51°30.893 2°54.601 8.4507 3.356497 31.535085 -2.458615
2012-04-16 14:03:53 51°30.883 2°54.552 8.451 3.355669 31.527272 -2.458615
2012-04-16 14:04:53 51°30.885 2°54.457 8.4597 3.355566 31.521317 -2.458615
2012-04-16 14:05:52 51°30.977 2°54.291 8.4433 3.355255 31.514021 -2.458615
2012-04-16 14:06:53 51°31.122 2°54.211 8.4316 3.356291 31.54757 -2.458615
2012-04-16 14:07:52 51°31.272 2°54.156 8.4309 3.356808 31.557034 -2.458615
2012-04-16 14:08:53 51°31.427 2°54.089 8.4544 3.36188 31.608277 -2.458615
2012-04-16 14:09:53 51°31.579 2°54.023 8.4374 3.370574 31.680145 -2.458615
2012-04-16 14:10:53 51°31.696 2°53.97 8.4508 3.37461 31.732045 -2.458615
2012-04-16 14:11:53 51°31.742 2°53.901 8.4508 3.377612 31.753525 -2.458615
2012-04-16 14:12:52 51°31.728 2°53.807 8.4523 3.379371 31.773512 -2.458615
2012-04-16 14:13:53 51°31.666 2°53.769 8.442 3.379164 31.776269 -2.458615
2012-04-16 14:14:53 51°31.621 2°53.75 8.4501 3.378026 31.76849 -2.458615
2012-04-16 14:15:53 51°31.58 2°53.723 8.459 3.376991 31.751142 -2.458615
2012-04-16 14:16:53 51°31.545 2°53.683 8.462 3.375852 31.729451 -2.458615
2012-04-16 14:17:53 51°31.519 2°53.637 8.459 3.376059 31.729155 -2.458615
2012-04-16 14:18:53 51°31.499 2°53.59 8.4575 3.374196 31.71137 -2.458615
2012-04-16 14:19:53 51°31.482 2°53.543 8.456 3.373989 31.711665 -2.458615
2012-04-16 14:20:52 51°31.469 2°53.496 8.4595 3.373265 31.704112 -2.458615
2012-04-16 14:21:52 51°31.459 2°53.45 8.4622 3.373265 31.702478 -2.458615
2012-04-16 14:22:53 51°31.449 2°53.404 8.4611 3.373058 31.696235 -2.458615
2012-04-16 14:23:52 51°31.439 2°53.37 8.4631 3.373679 31.703524 -2.458615
2012-04-16 14:24:53 51°31.427 2°53.35 8.4601 3.373679 31.702707 -2.458615
2012-04-16 14:25:52 51°31.418 2°53.319 8.4622 3.372954 31.699241 -2.458615
2012-04-16 14:26:53 51°31.446 2°53.262 8.4616 3.373989 31.704309 -2.458615
2012-04-16 14:27:52 51°31.562 2°53.22 8.4064 3.374714 31.720853 -2.458615
2012-04-16 14:28:52 51°31.72 2°53.126 8.3614 3.376888 31.791877 -2.458615
2012-04-16 14:29:53 51°31.88 2°53.018 8.3438 3.375336 31.807702 -2.458615
2012-04-16 14:30:52 51°32.037 2°52.92 8.3232 3.375129 31.82364 -2.458615
2012-04-16 14:31:53 51°32.185 2°52.783 8.2832 3.374922 31.842894 -2.458615
2012-04-16 14:32:52 51°32.252 2°52.658 8.2778 3.372542 31.846015 -2.458615
2012-04-16 14:33:53 51°32.23 2°52.552 8.268 3.369541 31.829428 -2.458615
2012-04-16 14:34:52 51°32.193 2°52.482 8.2669 3.370162 31.841714 -2.458615
2012-04-16 14:35:53 51°32.159 2°52.413 8.2673 3.369023 31.826482 -2.458615
2012-04-16 14:36:52 51°32.131 2°52.336 8.2655 3.370472 31.84249 -2.458615
2012-04-16 14:37:52 51°32.11 2°52.252 8.2798 3.370369 31.842231 -2.458615
2012-04-16 14:38:53 51°32.095 2°52.164 8.2643 3.371404 31.849774 -2.458615
2012-04-16 14:39:52 51°32.085 2°52.076 8.2769 3.3713 31.854471 -2.458615
2012-04-16 14:40:53 51°32.081 2°51.988 8.2693 3.372025 31.851326 -2.458615
2012-04-16 14:41:52 51°32.079 2°51.905 8.2548 3.372025 31.859585 -2.458615
2012-04-16 14:42:52 51°32.082 2°51.826 8.2348 3.369851 31.851676 -2.458615
2012-04-16 14:43:52 51°32.091 2°51.749 8.2209 3.367471 31.842419 -2.458615
2012-04-16 14:44:52 51°32.102 2°51.678 8.2189 3.365401 31.828973 -2.458615
2012-04-16 14:45:52 51°32.108 2°51.618 8.2236 3.365504 31.833365 -2.458615
2012-04-16 14:46:52 51°32.106 2°51.572 8.2112 3.365608 31.833624 -2.458615
2012-04-16 14:47:53 51°32.096 2°51.534 8.2099 3.364987 31.836204 -2.458615
2012-04-16 14:48:53 51°32.085 2°51.461 8.2177 3.365194 31.837549 -2.458615
2012-04-16 14:49:53 51°32 2°51.427 8.2343 3.363641 31.812169 -2.458615
2012-04-16 14:50:53 51°31.87 2°51.556 8.23 3.361261 31.778949 -2.458615
2012-04-16 14:51:53 51°31.733 2°51.712 8.2978 3.363434 31.792661 -2.458615
2012-04-16 14:52:52 51°31.594 2°51.866 8.3559 3.344907 31.542871 -2.458615
2012-04-16 14:53:52 51°31.475 2°52.056 8.3784 3.34294 31.47585 -2.458615
2012-04-16 14:54:53 51°31.352 2°52.249 8.4149 3.342319 31.448226 -2.458615
2012-04-16 14:55:52 51°31.239 2°52.381 8.429 3.345734 31.456226 -2.458615
2012-04-16 14:56:52 51°31.186 2°52.463 8.4459 3.340663 31.394454 -2.458615
2012-04-16 14:57:53 51°31.218 2°52.508 8.4302 3.337558 31.349165 -2.458615
2012-04-16 14:58:53 51°31.233 2°52.481 8.4323 3.33673 31.353483 -2.458615
2012-04-16 14:59:53 51°31.221 2°52.458 8.3999 3.335281 31.335964 -2.458615
2012-04-16 15:00:53 51°31.207 2°52.44 8.4008 3.333108 31.338394 -2.458615
2012-04-16 15:01:52 51°31.203 2°52.437 8.4109 3.331348 31.321675 -2.458615
2012-04-16 15:02:53 51°31.206 2°52.439 8.4059 3.331969 31.320059 -2.458615
2012-04-16 15:03:52 51°31.205 2°52.439 8.4314 3.330727 31.30631 -2.458615
2012-04-16 15:04:53 51°31.203 2°52.439 8.425 3.331348 31.292584 -2.458615
2012-04-16 15:05:53 51°31.202 2°52.438 8.4264 3.330313 31.285843 -2.458615
2012-04-16 15:06:53 51°31.205 2°52.435 8.4172 3.328968 31.274254 -2.458615
2012-04-16 15:07:53 51°31.204 2°52.433 8.4095 3.329175 31.286097 -2.458615
2012-04-16 15:08:52 51°31.204 2°52.434 8.4179 3.330003 31.29553 -2.458615
2012-04-16 15:09:52 51°31.205 2°52.436 8.4088 3.326174 31.251607 -2.458615
2012-04-16 15:10:52 51°31.206 2°52.436 8.4207 3.326381 31.257797 -2.458615
2012-04-16 15:11:52 51°31.203 2°52.436 8.4174 3.324932 31.236255 -2.458615
2012-04-16 15:12:53 51°31.204 2°52.437 8.4142 3.325139 31.241635 -2.458615
2012-04-16 15:13:53 51°31.204 2°52.436 8.4043 3.326587 31.256725 -2.458615
2012-04-16 15:14:52 51°31.204 2°52.434 8.4089 3.321102 31.207659 -2.458615
2012-04-16 15:15:53 51°31.206 2°52.435 8.4199 3.320171 31.195542 -2.458615
2012-04-16 15:16:53 51°31.205 2°52.436 8.4196 3.317894 31.161376 -2.458615
2012-04-16 15:17:53 51°31.204 2°52.436 8.4161 3.317273 31.157324 -2.458615
2012-04-16 15:18:53 51°31.204 2°52.437 8.4357 3.316238 31.146551 -2.458615
2012-04-16 15:19:53 51°31.206 2°52.435 8.4342 3.316549 31.136927 -2.458615
2012-04-16 15:20:53 51°31.205 2°52.434 8.4248 3.314686 31.117544 -2.458615
2012-04-16 15:21:52 51°31.206 2°52.435 8.4316 3.313961 31.114823 -2.458615
2012-04-16 15:22:53 51°31.204 2°52.436 8.4273 3.312099 31.093034 -2.458615
2012-04-16 15:23:52 51°31.204 2°52.437 8.4353 3.311167 31.084947 -2.458615
2012-04-16 15:24:53 51°31.203 2°52.439 8.4424 3.310132 31.066166 -2.458615
2012-04-16 15:25:53 51°31.203 2°52.439 8.4445 3.310339 31.065114 -2.458615
2012-04-16 15:26:53 51°31.205 2°52.436 8.4437 3.308787 31.047369 -2.458615
2012-04-16 15:27:52 51°31.204 2°52.434 8.4458 3.307855 31.032883 -2.458615
2012-04-16 15:28:52 51°31.205 2°52.435 8.4349 3.305889 31.01644 -2.458615
2012-04-16 15:29:52 51°31.204 2°52.436 8.4544 3.305372 31.017459 -2.458615
2012-04-16 15:30:52 51°31.203 2°52.436 8.4605 3.304026 30.987486 -2.458615
2012-04-16 15:31:53 51°31.204 2°52.436 8.4621 3.303509 30.975721 -2.458615
2012-04-16 15:32:52 51°31.203 2°52.438 8.4655 3.304129 30.981374 -2.458615
2012-04-16 15:33:53 51°31.203 2°52.438 8.4541 3.301542 30.955292 -2.458615
2012-04-16 15:34:52 51°31.203 2°52.438 8.4439 3.305371 31.005464 -2.458615
2012-04-16 15:35:53 51°31.204 2°52.437 8.4382 3.296368 30.918271 -2.458615
2012-04-16 15:36:53 51°31.209 2°52.441 8.4473 3.298127 30.937353 -2.458615
2012-04-16 15:37:52 51°31.215 2°52.446 8.4547 3.296782 30.916993 -2.458615
2012-04-16 15:38:53 51°31.222 2°52.45 8.4428 3.296368 30.908708 -2.458615
2012-04-16 15:39:53 51°31.226 2°52.453 8.4041 3.298438 30.945368 -2.458615
2012-04-16 15:40:53 51°31.221 2°52.448 8.3966 3.293988 30.927031 -2.458615
2012-04-16 15:41:53 51°31.208 2°52.439 8.3968 3.290677 30.898167 -2.458615
2012-04-16 15:42:53 51°31.196 2°52.445 8.4035 3.286124 30.8516 -2.458615
2012-04-16 15:43:52 51°31.152 2°52.49 8.3983 3.287469 30.860015 -2.458615
2012-04-16 15:44:53 51°31.011 2°52.503 8.4417 3.283122 30.813226 -2.458615
2012-04-16 15:45:52 51°30.807 2°52.548 8.5121 3.286847 30.800289 -2.458615
2012-04-16 15:46:52 51°30.59 2°52.548 8.517 3.286433 30.755581 -2.458615
2012-04-16 15:47:52 51°30.374 2°52.51 8.4813 3.273601 30.618644 -2.458615
2012-04-16 15:48:52 51°30.159 2°52.474 8.5436 3.263977 30.542532 -2.458615
2012-04-16 15:49:52 51°29.941 2°52.442 8.524 3.259424 30.451453 -2.458615
2012-04-16 15:50:52 51°29.719 2°52.406 8.5096 3.257354 30.44256 -2.458615
2012-04-16 15:51:52 51°29.502 2°52.364 8.5326 3.206963 29.927005 -2.458615
2012-04-16 15:52:52 51°29.283 2°52.338 8.5741 3.187718 29.71764 -2.458615
2012-04-16 15:53:52 51°29.067 2°52.298 8.597 3.179855 29.615234 -2.458615
2012-04-16 15:54:53 51°28.848 2°52.265 8.6361 3.197237 29.782167 -2.458615
2012-04-16 15:55:52 51°28.635 2°52.229 8.6075 3.182854 29.57401 -2.458615
2012-04-16 15:56:53 51°28.413 2°52.192 8.6407 3.18482 29.604834 -2.458615
2012-04-16 15:57:53 51°28.192 2°52.158 8.6537 3.173233 29.497028 -2.458615
2012-04-16 15:58:52 51°27.975 2°52.132 8.5436 3.177578 29.543231 -2.458615
2012-04-16 15:59:52 51°27.753 2°52.098 8.4813 3.177889 29.626938 -2.458615
2012-04-16 16:00:53 51°27.529 2°52.072 8.4933 3.145301 29.33481 -2.458615
2012-04-16 16:01:52 51°27.313 2°52.06 8.5103 3.149542 29.368731 -2.458615
2012-04-16 16:02:53 51°27.089 2°52.035 8.5064 3.150473 29.368505 -2.458615
2012-04-16 16:03:52 51°26.869 2°52.007 8.5625 3.138162 29.236353 -2.458615
2012-04-16 16:04:52 51°26.651 2°51.963 8.601 3.13692 29.178528 -2.458615
2012-04-16 16:05:52 51°26.43 2°51.928 8.6054 3.130816 29.098571 -2.458615
2012-04-16 16:06:52 51°26.209 2°51.888 8.6391 3.136816 29.149765 -2.458615
2012-04-16 16:07:52 51°25.988 2°51.853 8.645 3.125229 29.000984 -2.458615
2012-04-16 16:08:52 51°25.768 2°51.827 8.6801 3.104953 28.77611 -2.458615
2012-04-16 16:09:52 51°25.549 2°51.803 8.6804 3.124401 28.950953 -2.458615
2012-04-16 16:10:53 51°25.323 2°51.762 8.6686 3.112815 28.847055 -2.458615
2012-04-16 16:11:52 51°25.107 2°51.719 8.6907 3.088195 28.58695 -2.458615
2012-04-16 16:12:52 51°24.886 2°51.674 8.7248 3.096263 28.651906 -2.458615
2012-04-16 16:13:52 51°24.665 2°51.643 8.7532 3.082505 28.487218 -2.458615
2012-04-16 16:14:53 51°24.443 2°51.65 8.7457 3.079712 28.448526 -2.458615
2012-04-16 16:15:52 51°24.228 2°51.669 8.6984 3.075264 28.409662 -2.458615
2012-04-16 16:16:52 51°24.009 2°51.668 8.6583 3.078368 28.479894 -2.458615
2012-04-16 16:17:52 51°23.79 2°51.67 8.6592 3.071128 28.43353 -2.458615
2012-04-16 16:18:52 51°23.571 2°51.679 8.6565 3.065645 28.381094 -2.458615
2012-04-16 16:19:52 51°23.355 2°51.692 8.6609 3.032236 28.035363 -2.458615
2012-04-16 16:20:52 51°23.136 2°51.701 8.6829 3.017239 27.87516 -2.458615
2012-04-16 16:21:53 51°22.913 2°51.702 8.6938 3.012067 27.813164 -2.458615
2012-04-16 16:22:52 51°22.696 2°51.708 8.6973 2.995726 27.636744 -2.458615
2012-04-16 16:23:53 51°22.474 2°51.712 8.7225 3.004827 27.714556 -2.458615
2012-04-16 16:24:52 51°22.258 2°51.689 8.7945 3.002345 27.672311 -2.458615
2012-04-16 16:25:53 51°22.035 2°51.666 8.8462 2.976489 27.35702 -2.458615
2012-04-16 16:26:52 51°21.821 2°51.647 8.8588 2.978557 27.343161 -2.458615
2012-04-16 16:27:53 51°21.595 2°51.623 8.9131 2.978763 27.329261 -2.458615
2012-04-16 16:28:52 51°21.377 2°51.6 8.9621 2.969455 27.201846 -2.458615
2012-04-16 16:29:52 51°21.153 2°51.589 9.0005 3.002342 27.498201 -2.458615
2012-04-16 16:30:53 51°20.928 2°51.57 9.0121 2.978865 27.231989 -2.458615
2012-04-16 16:31:52 51°20.713 2°51.582 9.0105 2.959836 27.031218 -2.458615
2012-04-16 16:32:53 51°20.494 2°51.601 8.9871 2.951046 26.94813 -2.458615
2012-04-16 16:33:52 51°20.283 2°51.613 8.9848 2.952494 26.978428 -2.458615
2012-04-16 16:34:53 51°20.064 2°51.636 8.9722 2.95932 27.053407 -2.458615
2012-04-16 16:35:52 51°19.849 2°51.652 8.9615 2.917231 26.626654 -2.458615
2012-04-16 16:36:53 51°19.626 2°51.674 8.9673 2.917231 26.632728 -2.458615
2012-04-16 16:37:52 51°19.412 2°51.721 9.0147 2.908132 26.527697 -2.458615
2012-04-16 16:38:53 51°19.19 2°51.775 9.0377 2.929433 26.714971 -2.458615
2012-04-16 16:39:52 51°18.976 2°51.822 9.0267 2.92509 26.668597 -2.458615
2012-04-16 16:40:52 51°18.761 2°51.87 9.0346 2.917128 26.589231 -2.458615
2012-04-16 16:41:52 51°18.544 2°51.902 9.0457 2.899445 26.398902 -2.458615
2012-04-16 16:42:52 51°18.329 2°51.947 9.0448 2.867908 26.07996 -2.458615
2012-04-16 16:43:52 51°18.114 2°51.996 9.0539 2.855604 25.959977 -2.458615
2012-04-16 16:44:52 51°17.896 2°52.03 9.0885 2.882694 26.222217 -2.458615
2012-04-16 16:45:52 51°17.68 2°52.079 9.1084 2.860877 25.979303 -2.458615
2012-04-16 16:46:53 51°17.46 2°52.143 9.1212 2.847332 25.825563 -2.458615
2012-04-16 16:47:52 51°17.253 2°52.226 9.1131 2.892413 26.275856 -2.458615
2012-04-16 16:48:52 51°17.062 2°52.364 9.0939 2.883314 26.185419 -2.458615
2012-04-16 16:49:53 51°16.87 2°52.513 9.1181 2.900168 26.363506 -2.458615
2012-04-16 16:50:52 51°16.676 2°52.641 9.1215 2.845368 25.800727 -2.458615
2012-04-16 16:51:52 51°16.487 2°52.787 9.1218 2.856224 25.907244 -2.458615
2012-04-16 16:52:52 51°16.317 2°52.958 9.1556 2.832961 25.670998 -2.458615
2012-04-16 16:53:53 51°16.179 2°53.086 9.4369 3.345933 30.842155 -2.458615
2012-04-16 16:54:53 51°16.052 2°53.185 9.5373 3.344898 30.833137 -2.458615
2012-04-16 16:55:54 51°15.929 2°53.296 9.6412 1.140502 9.510063 -2.458615
2012-04-16 16:56:52 51°15.794 2°53.433 9.7479 1.028721 8.508703 -2.458615
2012-04-16 16:57:52 51°15.672 2°53.556 9.8397 1.527447 13.042827 -2.458615
2012-04-16 16:58:52 51°15.559 2°53.672 9.8928 1.598601 13.695174 -2.458615
2012-04-16 16:59:53 51°15.447 2°53.801 9.9831 0.862783 6.304298 -2.458615
2012-04-16 17:00:52 51°15.336 2°53.94 10.0408 0.136383 0.903777 -2.458615
2012-04-16 17:01:53 51°15.216 2°54.088 10.1424 0.063069 0.407351 -2.458615
2012-04-16 17:02:52 51°15.088 2°54.24 10.2509 0.052479 0.338323 -2.458615
2012-04-16 17:03:53 51°14.95 2°54.42 10.3052 0.049805 0.322672 -2.458615
2012-04-16 17:04:53 51°14.809 2°54.609 10.4167 0.048572 0.315557 -2.458615
2012-04-16 17:05:53 51°14.67 2°54.8 10.4786 0.048469 0.313779 -2.458615
2012-04-16 17:06:56 51°14.525 2°54.999 10.6023 0.049497 0.312967 -2.458615
2012-04-16 17:07:56 51°14.387 2°55.18 10.6555 0.050114 0.316871 -2.458615
2012-04-16 17:08:56 51°14.262 2°55.309 10.7547 0.049805 0.319016 -2.458615
2012-04-16 17:09:56 51°14.145 2°55.402 10.8265 0.049086 0.318413 -2.458615
2012-04-16 17:10:56 51°14.046 2°55.477 10.9125 0.04888 0.319944 -2.458615
2012-04-16 17:11:56 51°13.957 2°55.539 10.9716 0.048777 0.321292 -2.458615
2012-04-16 17:12:56 51°13.869 2°55.604 11.0161 0.048777 0.322872 -2.458615
2012-04-16 17:13:56 51°13.783 2°55.68 11.0969 0.048777 0.323795 -2.458615
2012-04-16 17:14:56 51°13.725 2°55.768 11.0084 0.04888 0.324872 -2.458615
2012-04-16 17:15:56 51°13.679 2°55.86 11.2906 0.049086 0.32627 -2.458615
2012-04-16 17:16:56 51°13.648 2°55.945 11.3398 0.049292 0.327646 -2.458615
2012-04-16 17:17:56 51°13.637 2°56.01 11.3932 0.049703 0.330451 -2.458615